Time;durP1;ratioP1;P1;durP2;ratioP2;P2;SDS_P1;SDS_P2;PMS_P1;PMS_P2;Temp;Humidity;BMP_temperature;BMP_pressure;BME280_temperature;BME280_humidity;BME280_pressure;Samples;Min_cycle;Max_cycle;Signal;HPM_P1;HPM_P2
2021/12/03 00:02:11;;;;;;;4.07;3.63;;;;;;;;;;5087921;28;20192;-69
2021/12/03 00:04:38;;;;;;;5.75;4.35;;;;;;;;;;5088283;28;20192;-69
2021/12/03 00:07:04;;;;;;;3.75;3.45;;;;;;;;;;5088103;28;20208;-69
2021/12/03 00:09:35;;;;;;;6.28;4.15;;;;;;;;;;5087708;28;20497;-70
2021/12/03 00:12:03;;;;;;;4.40;4.10;;;;;;;;;;5087872;28;20215;-68
2021/12/03 00:14:30;;;;;;;4.38;3.63;;;;;;;;;;5087854;28;20196;-69
2021/12/03 00:16:57;;;;;;;4.47;4.07;;;;;;;;;;5087896;28;20202;-69
2021/12/03 00:19:23;;;;;;;6.25;4.50;;;;;;;;;;5087072;28;20196;-69
2021/12/03 00:21:50;;;;;;;5.55;3.60;;;;;;;;;;5087201;28;20193;-68
2021/12/03 00:24:16;;;;;;;4.80;3.95;;;;;;;;;;5084695;28;20222;-67
2021/12/03 00:26:43;;;;;;;3.20;2.97;;;;;;;;;;5084710;28;20210;-68
2021/12/03 00:29:10;;;;;;;3.85;3.60;;;;;;;;;;5103330;28;20196;-67
2021/12/03 00:31:37;;;;;;;4.95;2.90;;;;;;;;;;5105164;28;20566;-67
2021/12/03 00:34:04;;;;;;;5.28;4.13;;;;;;;;;;5104950;28;20195;-66
2021/12/03 00:36:30;;;;;;;4.50;3.67;;;;;;;;;;5104719;28;20195;-66
2021/12/03 00:38:59;;;;;;;4.78;3.80;;;;;;;;;;5104962;28;20202;-67
2021/12/03 00:41:28;;;;;;;4.68;4.05;;;;;;;;;;5105527;28;20511;-69
2021/12/03 00:43:54;;;;;;;4.65;3.85;;;;;;;;;;5107470;28;20488;-66
2021/12/03 00:46:23;;;;;;;6.60;4.22;;;;;;;;;;5104391;28;20223;-66
2021/12/03 00:48:51;;;;;;;5.18;4.30;;;;;;;;;;5104773;28;20196;-66
2021/12/03 00:51:19;;;;;;;5.90;3.92;;;;;;;;;;5104623;28;20215;-66
2021/12/03 00:53:45;;;;;;;5.18;4.03;;;;;;;;;;5104738;28;20264;-67
2021/12/03 00:56:12;;;;;;;4.38;4.05;;;;;;;;;;5104276;28;20196;-67
2021/12/03 00:58:39;;;;;;;4.72;3.45;;;;;;;;;;5104467;28;20195;-67
2021/12/03 01:01:05;;;;;;;4.53;3.97;;;;;;;;;;5104539;28;20192;-67
2021/12/03 01:03:34;;;;;;;4.20;3.72;;;;;;;;;;5104407;28;20202;-67
2021/12/03 01:06:00;;;;;;;7.25;4.00;;;;;;;;;;5103859;28;20390;-67
2021/12/03 01:08:27;;;;;;;3.97;3.58;;;;;;;;;;5104622;28;20183;-69
2021/12/03 01:10:54;;;;;;;3.92;3.47;;;;;;;;;;5104569;28;20572;-69
2021/12/03 01:13:20;;;;;;;5.43;3.72;;;;;;;;;;5103999;28;20191;-69
2021/12/03 01:15:47;;;;;;;4.72;4.15;;;;;;;;;;5103857;28;20195;-69
2021/12/03 01:18:13;;;;;;;4.55;3.85;;;;;;;;;;5104033;28;20202;-69
2021/12/03 01:20:42;;;;;;;6.13;4.13;;;;;;;;;;5103970;28;20385;-67
2021/12/03 01:23:10;;;;;;;8.35;4.25;;;;;;;;;;5104025;28;20196;-67
2021/12/03 01:25:37;;;;;;;5.88;4.25;;;;;;;;;;5103665;28;20196;-67
2021/12/03 01:28:04;;;;;;;5.80;4.53;;;;;;;;;;5104119;28;20195;-67
2021/12/03 01:30:31;;;;;;;5.35;4.03;;;;;;;;;;5103808;28;20212;-67
2021/12/03 01:32:58;;;;;;;3.67;3.42;;;;;;;;;;5103709;28;20196;-67
2021/12/03 01:35:25;;;;;;;4.47;4.07;;;;;;;;;;5103832;28;20196;-67
2021/12/03 01:37:53;;;;;;;5.05;4.38;;;;;;;;;;5104025;28;20491;-67
2021/12/03 01:40:20;;;;;;;4.70;4.22;;;;;;;;;;5103863;28;20217;-67
2021/12/03 01:42:47;;;;;;;4.40;4.00;;;;;;;;;;5103562;28;20203;-67
2021/12/03 01:45:14;;;;;;;8.10;4.07;;;;;;;;;;5103266;28;20283;-67
2021/12/03 01:47:41;;;;;;;5.82;4.50;;;;;;;;;;5103446;28;20420;-66
2021/12/03 01:50:08;;;;;;;6.38;4.00;;;;;;;;;;5103745;28;20511;-66
2021/12/03 01:52:35;;;;;;;4.40;4.00;;;;;;;;;;5103758;28;20203;-66
2021/12/03 01:55:03;;;;;;;4.47;4.07;;;;;;;;;;5103386;28;20199;-66
2021/12/03 01:57:29;;;;;;;4.30;4.00;;;;;;;;;;5103318;28;20195;-66
2021/12/03 01:59:56;;;;;;;5.50;4.00;;;;;;;;;;5103867;28;20196;-66
2021/12/03 02:02:27;;;;;;;4.38;4.07;;;;;;;;;;5103530;28;20223;-66
2021/12/03 02:04:57;;;;;;;4.63;4.30;;;;;;;;;;5102650;28;20177;-67
2021/12/03 02:07:23;;;;;;;4.75;4.45;;;;;;;;;;5103132;28;20218;-66
2021/12/03 02:09:50;;;;;;;4.68;4.10;;;;;;;;;;5103366;28;20381;-66
2021/12/03 02:12:17;;;;;;;4.28;3.95;;;;;;;;;;5103282;28;20566;-67
2021/12/03 02:14:44;;;;;;;4.72;4.32;;;;;;;;;;5102799;28;20495;-67
2021/12/03 02:17:10;;;;;;;5.13;4.63;;;;;;;;;;5103294;28;20196;-67
2021/12/03 02:19:37;;;;;;;4.65;4.25;;;;;;;;;;5103063;28;20557;-67
2021/12/03 02:22:05;;;;;;;5.10;4.60;;;;;;;;;;5102964;28;20192;-68
2021/12/03 02:24:31;;;;;;;6.38;4.38;;;;;;;;;;5102735;28;20195;-69
2021/12/03 02:26:58;;;;;;;5.47;4.57;;;;;;;;;;5102275;28;20196;-69
2021/12/03 02:29:24;;;;;;;4.78;4.47;;;;;;;;;;5102992;28;20218;-69
2021/12/03 02:31:51;;;;;;;4.65;4.25;;;;;;;;;;5103398;28;20215;-67
2021/12/03 02:34:18;;;;;;;4.90;4.43;;;;;;;;;;5103149;28;20196;-67
2021/12/03 02:36:44;;;;;;;5.40;4.78;;;;;;;;;;5102782;28;20519;-67
2021/12/03 02:39:12;;;;;;;7.22;4.75;;;;;;;;;;5102814;28;20518;-67
2021/12/03 02:41:38;;;;;;;7.55;4.95;;;;;;;;;;5102878;28;20245;-67
2021/12/03 02:44:05;;;;;;;4.82;4.32;;;;;;;;;;5102808;28;20391;-67
2021/12/03 02:46:32;;;;;;;7.30;4.80;;;;;;;;;;5102353;28;20231;-67
2021/12/03 02:48:58;;;;;;;5.47;4.95;;;;;;;;;;5102576;28;20196;-67
2021/12/03 02:51:25;;;;;;;6.45;5.15;;;;;;;;;;5102556;28;20212;-67
2021/12/03 02:53:51;;;;;;;4.95;4.60;;;;;;;;;;5102530;28;20200;-66
2021/12/03 02:56:19;;;;;;;6.35;4.45;;;;;;;;;;5102332;28;20195;-67
2021/12/03 02:58:45;;;;;;;6.32;4.90;;;;;;;;;;5102720;28;20218;-67
2021/12/03 03:01:12;;;;;;;5.22;4.70;;;;;;;;;;5102436;28;20200;-67
2021/12/03 03:03:38;;;;;;;4.80;4.43;;;;;;;;;;5102754;28;20195;-67
2021/12/03 03:06:06;;;;;;;5.88;4.78;;;;;;;;;;5102248;28;20216;-67
2021/12/03 03:08:32;;;;;;;8.50;5.38;;;;;;;;;;5102656;28;20476;-68
2021/12/03 03:11:01;;;;;;;5.28;4.60;;;;;;;;;;5102142;28;20219;-69
2021/12/03 03:13:28;;;;;;;5.47;4.95;;;;;;;;;;5102526;28;20223;-67
2021/12/03 03:15:55;;;;;;;7.53;5.40;;;;;;;;;;5102121;28;20203;-67
2021/12/03 03:18:23;;;;;;;5.90;5.03;;;;;;;;;;5106674;28;20491;-67
2021/12/03 03:20:50;;;;;;;5.47;5.07;;;;;;;;;;5106520;28;20195;-69
2021/12/03 03:23:18;;;;;;;6.50;5.60;;;;;;;;;;5108800;28;20301;-69
2021/12/03 03:25:45;;;;;;;7.13;5.05;;;;;;;;;;5109276;28;20202;-69
2021/12/03 03:28:12;;;;;;;5.20;4.80;;;;;;;;;;5109210;28;20195;-69
2021/12/03 03:30:41;;;;;;;5.75;5.15;;;;;;;;;;5108965;28;20200;-69
2021/12/03 03:33:08;;;;;;;5.35;4.85;;;;;;;;;;5107371;28;20249;-68
2021/12/03 03:35:35;;;;;;;5.03;4.60;;;;;;;;;;5108459;28;20202;-69
2021/12/03 03:38:02;;;;;;;5.53;4.95;;;;;;;;;;5109085;28;20195;-69
2021/12/03 03:40:28;;;;;;;6.35;5.00;;;;;;;;;;5109177;28;20200;-69
2021/12/03 03:42:55;;;;;;;5.80;5.20;;;;;;;;;;5108429;28;20192;-67
2021/12/03 03:45:23;;;;;;;6.00;5.30;;;;;;;;;;5105827;28;20215;-67
2021/12/03 03:47:51;;;;;;;7.10;5.63;;;;;;;;;;5105714;28;20195;-67
2021/12/03 03:50:19;;;;;;;5.75;5.25;;;;;;;;;;5105761;28;20200;-66
2021/12/03 03:52:46;;;;;;;5.88;5.07;;;;;;;;;;5105917;28;20219;-66
2021/12/03 03:55:14;;;;;;;6.35;5.43;;;;;;;;;;5105490;28;20195;-69
2021/12/03 03:57:42;;;;;;;6.38;5.13;;;;;;;;;;5105674;28;20196;-69
2021/12/03 04:00:10;;;;;;;8.35;5.72;;;;;;;;;;5105385;28;20191;-69
2021/12/03 04:02:36;;;;;;;8.30;5.68;;;;;;;;;;5105499;28;20530;-69
2021/12/03 04:05:05;;;;;;;5.72;5.22;;;;;;;;;;5105192;28;20203;-69
2021/12/03 04:07:31;;;;;;;6.47;5.78;;;;;;;;;;5105364;28;20400;-69
2021/12/03 04:09:57;;;;;;;6.68;5.97;;;;;;;;;;5107965;28;20196;-68
2021/12/03 04:12:24;;;;;;;8.15;5.85;;;;;;;;;;5108180;28;20215;-68
2021/12/03 04:14:51;;;;;;;10.90;5.43;;;;;;;;;;5108052;28;20397;-68
2021/12/03 04:17:17;;;;;;;6.43;5.90;;;;;;;;;;5107982;28;20196;-68
2021/12/03 04:19:44;;;;;;;6.03;5.47;;;;;;;;;;5108026;28;20203;-68
2021/12/03 04:22:15;;;;;;;7.82;6.50;;;;;;;;;;5108002;28;20192;-67
2021/12/03 04:24:41;;;;;;;10.05;6.13;;;;;;;;;;5105023;28;20276;-66
2021/12/03 04:27:08;;;;;;;7.07;5.90;;;;;;;;;;5104774;28;20444;-66
2021/12/03 04:29:34;;;;;;;6.97;6.30;;;;;;;;;;5105170;28;20204;-66
2021/12/03 04:32:00;;;;;;;9.07;6.40;;;;;;;;;;5105118;28;20224;-66
2021/12/03 04:34:27;;;;;;;6.70;6.03;;;;;;;;;;5105028;28;20234;-66
2021/12/03 04:36:53;;;;;;;7.03;6.35;;;;;;;;;;5104794;28;20514;-66
2021/12/03 04:39:21;;;;;;;6.55;6.05;;;;;;;;;;5105029;28;20196;-66
2021/12/03 04:41:48;;;;;;;7.82;6.45;;;;;;;;;;5105487;28;20206;-66
2021/12/03 04:44:14;;;;;;;7.10;6.50;;;;;;;;;;5104641;28;20527;-66
2021/12/03 04:46:41;;;;;;;8.93;7.00;;;;;;;;;;5104547;28;20216;-66
2021/12/03 04:49:07;;;;;;;10.20;7.53;;;;;;;;;;5104591;28;20196;-66
2021/12/03 04:51:34;;;;;;;10.82;7.70;;;;;;;;;;5104434;28;20216;-66
2021/12/03 04:54:00;;;;;;;10.45;7.82;;;;;;;;;;5104415;28;20526;-68
2021/12/03 04:56:28;;;;;;;7.55;6.72;;;;;;;;;;5104202;28;20291;-68
2021/12/03 04:58:54;;;;;;;10.25;7.50;;;;;;;;;;5104339;28;20211;-68
2021/12/03 05:01:21;;;;;;;7.38;6.68;;;;;;;;;;5104848;28;20196;-68
2021/12/03 05:03:47;;;;;;;8.77;6.38;;;;;;;;;;5104451;28;20195;-67
2021/12/03 05:06:17;;;;;;;8.57;6.70;;;;;;;;;;5104323;28;20210;-67
2021/12/03 05:08:43;;;;;;;7.88;6.75;;;;;;;;;;5104627;28;20465;-67
2021/12/03 05:11:10;;;;;;;7.32;6.38;;;;;;;;;;5104212;28;20202;-67
2021/12/03 05:13:38;;;;;;;9.18;7.03;;;;;;;;;;5104310;28;20220;-67
2021/12/03 05:16:05;;;;;;;7.45;6.75;;;;;;;;;;5104136;28;20504;-67
2021/12/03 05:18:32;;;;;;;7.30;6.60;;;;;;;;;;5104303;28;20204;-69
2021/12/03 05:21:00;;;;;;;8.52;7.47;;;;;;;;;;5104091;28;20197;-69
2021/12/03 05:23:27;;;;;;;8.07;6.70;;;;;;;;;;5104078;28;20200;-68
2021/12/03 05:25:54;;;;;;;8.40;6.60;;;;;;;;;;5104030;28;20562;-67
2021/12/03 05:28:21;;;;;;;7.70;6.97;;;;;;;;;;5104159;28;20200;-67
2021/12/03 05:30:54;;;;;;;13.70;11.38;;;;;;;;;;5103989;28;20542;-67
2021/12/03 05:33:21;;;;;;;11.35;9.13;;;;;;;;;;5103733;28;20220;-69
2021/12/03 05:35:47;;;;;;;10.27;8.43;;;;;;;;;;5103735;28;20195;-69
2021/12/03 05:38:14;;;;;;;9.27;8.38;;;;;;;;;;5103876;28;20218;-69
2021/12/03 05:40:40;;;;;;;9.93;8.30;;;;;;;;;;5102967;28;20520;-69
2021/12/03 05:43:07;;;;;;;9.80;7.55;;;;;;;;;;5103555;28;20192;-69
2021/12/03 05:45:34;;;;;;;9.35;7.78;;;;;;;;;;5103184;28;20223;-69
2021/12/03 05:48:02;;;;;;;8.18;7.03;;;;;;;;;;5103818;28;20204;-69
2021/12/03 05:50:29;;;;;;;9.15;7.85;;;;;;;;;;5103494;28;20385;-69
2021/12/03 05:52:57;;;;;;;9.45;8.32;;;;;;;;;;5103324;28;20211;-67
2021/12/03 05:55:24;;;;;;;8.43;7.63;;;;;;;;;;5103193;28;20196;-69
2021/12/03 05:57:50;;;;;;;9.55;8.48;;;;;;;;;;5103412;28;20199;-69
2021/12/03 06:00:18;;;;;;;8.57;7.68;;;;;;;;;;5103334;28;20200;-69
2021/12/03 06:02:45;;;;;;;9.50;7.97;;;;;;;;;;5103291;28;20192;-70
2021/12/03 06:05:13;;;;;;;8.90;8.00;;;;;;;;;;5103305;28;20468;-67
2021/12/03 06:07:39;;;;;;;8.18;7.25;;;;;;;;;;5103189;28;20402;-67
2021/12/03 06:10:06;;;;;;;9.70;7.53;;;;;;;;;;5103183;28;20195;-67
2021/12/03 06:12:33;;;;;;;14.07;8.88;;;;;;;;;;5103099;28;20216;-66
2021/12/03 06:14:59;;;;;;;10.60;8.50;;;;;;;;;;5103082;28;20204;-66
2021/12/03 06:17:25;;;;;;;13.25;8.43;;;;;;;;;;5103231;28;20522;-65
2021/12/03 06:19:52;;;;;;;14.80;9.40;;;;;;;;;;5103192;28;20196;-65
2021/12/03 06:22:20;;;;;;;11.25;8.70;;;;;;;;;;5103234;28;20180;-65
2021/12/03 06:24:46;;;;;;;10.90;8.43;;;;;;;;;;5102951;28;20196;-65
2021/12/03 06:27:12;;;;;;;11.85;8.90;;;;;;;;;;5102863;28;20196;-65
2021/12/03 06:29:39;;;;;;;8.75;7.85;;;;;;;;;;5102813;28;20203;-65
2021/12/03 06:32:09;;;;;;;10.15;8.02;;;;;;;;;;5103238;28;20382;-67
2021/12/03 06:34:35;;;;;;;9.52;8.20;;;;;;;;;;5104386;28;20196;-69
2021/12/03 06:37:01;;;;;;;13.15;9.00;;;;;;;;;;5102646;28;20196;-68
2021/12/03 06:39:29;;;;;;;10.43;8.82;;;;;;;;;;5102743;28;20203;-68
2021/12/03 06:41:56;;;;;;;13.15;8.82;;;;;;;;;;5102757;28;20203;-68
2021/12/03 06:44:23;;;;;;;11.48;8.73;;;;;;;;;;5102561;28;20202;-68
2021/12/03 06:46:51;;;;;;;8.95;8.07;;;;;;;;;;5102389;28;20203;-68
2021/12/03 06:49:17;;;;;;;8.75;7.85;;;;;;;;;;5102394;28;20294;-68
2021/12/03 06:51:44;;;;;;;7.93;6.97;;;;;;;;;;5102267;28;20386;-54
2021/12/03 06:54:12;;;;;;;8.23;7.40;;;;;;;;;;5102410;28;20227;-53
2021/12/03 06:56:48;;;;;;;7.63;6.93;;;;;;;;;;5090177;28;20576;-52
2021/12/03 06:59:15;;;;;;;8.82;7.10;;;;;;;;;;5089093;28;20212;-53
2021/12/03 07:01:42;;;;;;;9.98;6.90;;;;;;;;;;5096000;28;20206;-52
2021/12/03 07:04:08;;;;;;;8.48;6.97;;;;;;;;;;5096854;28;20290;-54
2021/12/03 07:06:35;;;;;;;8.13;7.32;;;;;;;;;;5096356;28;20215;-52
2021/12/03 07:09:02;;;;;;;9.45;6.20;;;;;;;;;;5096721;28;20210;-52
2021/12/03 07:11:29;;;;;;;8.15;6.75;;;;;;;;;;5096918;28;20281;-53
2021/12/03 07:13:57;;;;;;;8.40;6.38;;;;;;;;;;5096430;28;20228;-55
2021/12/03 07:16:23;;;;;;;6.38;5.78;;;;;;;;;;5096313;28;20402;-54
2021/12/03 07:18:50;;;;;;;6.65;6.10;;;;;;;;;;5096355;28;20388;-55
2021/12/03 07:21:16;;;;;;;7.45;6.20;;;;;;;;;;5094858;28;20218;-55
2021/12/03 07:23:43;;;;;;;6.30;5.70;;;;;;;;;;5096620;28;20211;-59
2021/12/03 07:26:09;;;;;;;6.78;5.95;;;;;;;;;;5096207;28;20207;-56
2021/12/03 07:28:35;;;;;;;6.82;6.13;;;;;;;;;;5096456;28;20333;-60
2021/12/03 07:31:03;;;;;;;8.02;7.22;;;;;;;;;;5097176;28;20208;-54
2021/12/03 07:33:31;;;;;;;8.38;6.68;;;;;;;;;;5096490;28;20422;-54
2021/12/03 07:35:58;;;;;;;7.95;6.13;;;;;;;;;;5094945;28;20208;-54
2021/12/03 07:38:24;;;;;;;6.55;5.97;;;;;;;;;;5095950;28;20471;-53
2021/12/03 07:40:51;;;;;;;7.70;6.80;;;;;;;;;;5097052;28;20219;-58
2021/12/03 07:43:17;;;;;;;6.60;6.00;;;;;;;;;;5096300;28;20204;-56
2021/12/03 07:45:44;;;;;;;6.85;6.28;;;;;;;;;;5096242;28;20549;-59
2021/12/03 07:48:12;;;;;;;6.35;5.70;;;;;;;;;;5095805;28;20559;-59
2021/12/03 07:50:39;;;;;;;6.95;6.38;;;;;;;;;;5095824;28;20215;-59
2021/12/03 07:53:06;;;;;;;7.65;6.88;;;;;;;;;;5095097;28;20231;-59
2021/12/03 07:55:33;;;;;;;8.15;7.03;;;;;;;;;;5095268;28;20235;-54
2021/12/03 07:57:59;;;;;;;7.55;6.75;;;;;;;;;;5095383;28;20273;-54
2021/12/03 08:00:26;;;;;;;8.25;7.35;;;;;;;;;;5095361;28;20208;-53
2021/12/03 08:02:52;;;;;;;7.25;6.38;;;;;;;;;;5096952;28;20203;-54
2021/12/03 08:05:20;;;;;;;7.60;6.32;;;;;;;;;;5098711;28;20207;-54
2021/12/03 08:07:48;;;;;;;7.10;5.93;;;;;;;;;;5098978;28;20215;-55
2021/12/03 08:10:14;;;;;;;7.05;6.22;;;;;;;;;;5099066;28;20215;-55
2021/12/03 08:12:41;;;;;;;10.75;5.63;;;;;;;;;;5095585;28;20560;-54
2021/12/03 08:15:08;;;;;;;9.57;6.60;;;;;;;;;;5078292;28;20539;-58
2021/12/03 08:17:34;;;;;;;10.18;6.43;;;;;;;;;;5078771;28;20208;-58
2021/12/03 08:20:01;;;;;;;5.55;5.13;;;;;;;;;;5078493;28;20214;-59
2021/12/03 08:22:28;;;;;;;8.05;5.85;;;;;;;;;;5078665;28;20208;-58
2021/12/03 08:24:55;;;;;;;8.20;5.82;;;;;;;;;;5077870;28;20208;-54
2021/12/03 08:27:21;;;;;;;8.05;6.13;;;;;;;;;;5078149;28;20208;-58
2021/12/03 08:29:48;;;;;;;6.88;5.88;;;;;;;;;;5078449;28;20215;-59
2021/12/03 08:32:14;;;;;;;8.13;5.60;;;;;;;;;;5078602;28;20410;-59
2021/12/03 08:34:41;;;;;;;7.00;5.60;;;;;;;;;;5078114;28;20299;-60
2021/12/03 08:37:08;;;;;;;5.50;5.10;;;;;;;;;;5077874;28;20216;-56
2021/12/03 08:39:37;;;;;;;7.00;5.05;;;;;;;;;;5078018;28;20212;-54
2021/12/03 08:42:05;;;;;;;6.32;5.50;;;;;;;;;;5078437;28;20270;-55
2021/12/03 08:44:31;;;;;;;5.63;5.13;;;;;;;;;;5091282;28;20208;-55
2021/12/03 08:47:00;;;;;;;5.32;4.93;;;;;;;;;;5097736;28;20219;-54
2021/12/03 08:49:33;;;;;;;5.82;4.97;;;;;;;;;;5098138;28;20711;-55
2021/12/03 08:52:23;;;;;;;6.28;5.03;;;;;;;;;;5098142;28;20233;-56
2021/12/03 08:54:53;;;;;;;5.20;4.80;;;;;;;;;;5098058;28;20539;-55
2021/12/03 08:57:20;;;;;;;5.53;5.03;;;;;;;;;;5098030;28;20283;-56
2021/12/03 08:59:47;;;;;;;12.65;6.00;;;;;;;;;;5098195;28;20200;-56
2021/12/03 09:02:13;;;;;;;4.78;4.38;;;;;;;;;;5097931;28;20223;-54
2021/12/03 09:04:40;;;;;;;5.65;5.15;;;;;;;;;;5097358;28;20210;-55
2021/12/03 09:07:06;;;;;;;6.03;4.28;;;;;;;;;;5097644;28;20269;-56
2021/12/03 09:09:33;;;;;;;3.80;3.60;;;;;;;;;;5098255;28;20523;-54
2021/12/03 09:12:01;;;;;;;5.57;3.88;;;;;;;;;;5098015;28;20208;-55
2021/12/03 09:14:36;;;;;;;5.50;3.90;;;;;;;;;;5096197;28;20299;-60
2021/12/03 09:17:12;;;;;;;5.65;3.67;;;;;;;;;;5100019;28;20274;-59
2021/12/03 09:19:39;;;;;;;5.68;3.60;;;;;;;;;;5099540;28;20203;-61
2021/12/03 09:22:07;;;;;;;3.08;2.88;;;;;;;;;;5097393;28;20399;-60
2021/12/03 09:24:36;;;;;;;3.28;2.97;;;;;;;;;;5096993;28;20204;-61
2021/12/03 09:27:04;;;;;;;3.28;2.92;;;;;;;;;;5097130;28;20207;-61
2021/12/03 09:29:32;;;;;;;5.63;3.33;;;;;;;;;;5096898;28;20245;-61
2021/12/03 09:31:59;;;;;;;3.10;2.90;;;;;;;;;;5096969;28;20207;-61
2021/12/03 09:34:28;;;;;;;6.97;5.75;;;;;;;;;;5097108;28;20265;-57
2021/12/03 09:36:54;;;;;;;3.20;3.00;;;;;;;;;;5096880;28;20216;-61
2021/12/03 09:39:22;;;;;;;3.20;3.00;;;;;;;;;;5096714;28;20211;-58
2021/12/03 09:41:49;;;;;;;3.38;3.08;;;;;;;;;;5096862;28;20515;-59
2021/12/03 09:44:17;;;;;;;3.35;3.15;;;;;;;;;;5096800;28;20461;-60
2021/12/03 09:46:44;;;;;;;4.07;2.75;;;;;;;;;;5096136;28;20526;-60
2021/12/03 09:52:21;;;;;;;3.30;3.00;;;;;;;;;;5086097;28;20192;-53
2021/12/03 09:54:49;;;;;;;2.85;2.65;;;;;;;;;;5096466;28;20223;-55
2021/12/03 09:57:18;;;;;;;7.38;3.30;;;;;;;;;;5096877;28;20375;-53
2021/12/03 10:00:09;;;;;;;6.85;3.10;;;;;;;;;;5096964;28;20214;-53
2021/12/03 10:02:59;;;;;;;3.95;3.60;;;;;;;;;;5097042;28;20467;-55
2021/12/03 10:14:31;;;;;;;3.72;3.40;;;;;;;;;;5084932;28;20255;-56
2021/12/03 10:19:51;;;;;;;3.28;2.85;;;;;;;;;;5083164;28;20419;-55
2021/12/03 10:22:37;;;;;;;2.63;2.50;;;;;;;;;;5095581;28;20211;-54
2021/12/03 10:28:18;;;;;;;5.82;3.20;;;;;;;;;;5071029;28;20429;-54
2021/12/03 10:31:20;;;;;;;5.68;2.88;;;;;;;;;;5096136;28;20252;-55
2021/12/03 10:34:04;;;;;;;3.22;2.92;;;;;;;;;;5095614;28;20499;-55
2021/12/03 10:36:53;;;;;;;3.05;2.83;;;;;;;;;;5095835;28;20542;-54
2021/12/03 10:39:32;;;;;;;4.47;3.63;;;;;;;;;;5096581;28;20208;-56
2021/12/03 10:42:07;;;;;;;11.85;3.72;;;;;;;;;;5096518;28;20246;-57
2021/12/03 10:47:26;;;;;;;4.30;3.10;;;;;;;;;;5083258;28;20391;-54
2021/12/03 10:50:07;;;;;;;3.95;3.30;;;;;;;;;;5076010;28;20215;-54
2021/12/03 10:52:49;;;;;;;3.67;3.38;;;;;;;;;;5092103;28;20249;-55
2021/12/03 11:04:41;;;;;;;2.95;2.72;;;;;;;;;;5031800;28;20555;-54
2021/12/03 11:07:41;;;;;;;2.95;2.75;;;;;;;;;;5090734;28;20257;-56
2021/12/03 11:29:55;;;;;;;4.88;2.60;;;;;;;;;;5095861;28;20208;-54
2021/12/03 12:36:16;;;;;;;4.85;3.17;;;;;;;;;;5065795;28;20208;-56
2021/12/03 12:44:50;;;;;;;3.63;2.28;;;;;;;;;;5072182;28;20204;-56
2021/12/03 13:12:56;;;;;;;5.90;2.47;;;;;;;;;;5078443;28;20208;-57
2021/12/03 13:16:02;;;;;;;4.53;2.05;;;;;;;;;;5077962;28;20567;-57
2021/12/03 14:40:18;;;;;;;11.20;2.85;;;;;;;;;;5076856;28;20231;-54
2021/12/03 14:45:51;;;;;;;11.55;2.67;;;;;;;;;;5076345;28;20227;-56
2021/12/03 14:48:33;;;;;;;3.30;2.70;;;;;;;;;;5076508;28;20502;-56
2021/12/03 14:51:14;;;;;;;7.30;2.15;;;;;;;;;;5077356;28;20276;-55
2021/12/03 14:53:58;;;;;;;5.30;2.47;;;;;;;;;;5076767;28;20275;-57
2021/12/03 14:56:27;;;;;;;6.95;1.83;;;;;;;;;;5076128;28;20240;-56
2021/12/03 14:59:13;;;;;;;6.80;2.38;;;;;;;;;;5076149;28;20232;-56
2021/12/03 15:01:46;;;;;;;2.05;1.83;;;;;;;;;;5075532;28;20250;-56
2021/12/03 15:04:36;;;;;;;2.90;2.20;;;;;;;;;;5076650;28;20208;-56
2021/12/03 15:07:11;;;;;;;3.80;2.45;;;;;;;;;;5075985;28;20279;-57
2021/12/03 15:09:39;;;;;;;2.97;2.67;;;;;;;;;;5076069;28;20196;-55
2021/12/03 15:12:47;;;;;;;3.55;3.00;;;;;;;;;;5076524;28;20299;-54
2021/12/03 15:23:51;;;;;;;4.70;3.35;;;;;;;;;;5072600;28;20208;-53
2021/12/03 15:26:34;;;;;;;2.38;2.25;;;;;;;;;;5075751;28;20216;-54
2021/12/03 15:31:50;;;;;;;2.70;1.83;;;;;;;;;;5075857;28;20262;-54
2021/12/03 15:34:34;;;;;;;5.25;2.38;;;;;;;;;;5076004;28;20536;-53
2021/12/03 15:37:19;;;;;;;4.75;2.58;;;;;;;;;;5075619;28;20240;-53
2021/12/03 15:40:15;;;;;;;2.50;2.30;;;;;;;;;;5064756;28;20228;-53
2021/12/03 15:56:46;;;;;;;2.55;2.17;;;;;;;;;;5075182;28;20215;-65
2021/12/03 16:04:42;;;;;;;14.52;6.80;;;;;;;;;;5075598;28;20211;-65
2021/12/03 16:07:19;;;;;;;13.85;6.93;;;;;;;;;;5075226;28;20299;-65
2021/12/03 16:10:00;;;;;;;12.93;7.35;;;;;;;;;;5076161;28;20235;-65
2021/12/03 16:12:38;;;;;;;15.88;7.93;;;;;;;;;;5075916;28;20208;-65
2021/12/03 16:20:56;;;;;;;4.45;4.00;;;;;;;;;;5075257;28;20220;-65
2021/12/03 16:23:40;;;;;;;3.20;2.53;;;;;;;;;;5075791;28;20209;-65
2021/12/03 16:26:17;;;;;;;6.25;3.13;;;;;;;;;;5075176;28;20426;-65
2021/12/03 16:48:25;;;;;;;4.50;3.00;;;;;;;;;;5077992;28;20211;-65
2021/12/03 16:53:35;;;;;;;2.63;2.50;;;;;;;;;;5078861;28;20207;-65
2021/12/03 16:56:06;;;;;;;5.93;2.47;;;;;;;;;;5078308;28;20216;-63
2021/12/03 16:58:35;;;;;;;4.65;3.00;;;;;;;;;;5078039;28;20216;-64
2021/12/03 17:01:05;;;;;;;5.13;3.30;;;;;;;;;;5079299;28;20540;-65
2021/12/03 17:03:39;;;;;;;4.63;3.55;;;;;;;;;;5078410;28;20470;-65
2021/12/03 17:09:19;;;;;;;5.72;4.15;;;;;;;;;;5077990;28;20520;-65
2021/12/03 17:14:57;;;;;;;4.60;4.10;;;;;;;;;;5074059;28;20204;-65
2021/12/03 17:20:41;;;;;;;7.55;4.35;;;;;;;;;;5078220;28;20243;-65
2021/12/03 17:48:40;;;;;;;11.98;6.13;;;;;;;;;;5077855;28;20207;-65
2021/12/03 17:54:10;;;;;;;8.85;5.97;;;;;;;;;;5071021;28;20473;-65
2021/12/03 17:56:38;;;;;;;12.20;5.90;;;;;;;;;;5077965;28;20365;-65
2021/12/03 17:59:12;;;;;;;14.60;6.95;;;;;;;;;;5077899;28;20246;-65
2021/12/03 18:01:47;;;;;;;11.80;7.03;;;;;;;;;;5078074;28;20242;-66
2021/12/03 18:04:23;;;;;;;12.15;6.65;;;;;;;;;;5078095;28;20208;-65
2021/12/03 18:07:03;;;;;;;11.73;7.20;;;;;;;;;;5077049;28;20499;-65
2021/12/03 18:09:49;;;;;;;7.28;6.00;;;;;;;;;;5077360;28;20275;-65
2021/12/03 18:12:37;;;;;;;6.90;6.07;;;;;;;;;;5078037;28;20222;-65
2021/12/03 18:18:26;;;;;;;9.50;6.10;;;;;;;;;;5076902;28;20208;-65
2021/12/03 18:48:28;;;;;;;12.82;8.98;;;;;;;;;;5056695;28;20217;-65
2021/12/03 18:51:08;;;;;;;17.48;9.23;;;;;;;;;;5059320;28;20593;-65
2021/12/03 18:53:47;;;;;;;13.75;8.30;;;;;;;;;;5076839;28;20203;-65
2021/12/03 18:56:19;;;;;;;13.32;8.23;;;;;;;;;;5076351;28;20212;-65
2021/12/03 18:58:46;;;;;;;14.57;8.77;;;;;;;;;;5076501;28;20220;-66
2021/12/03 19:01:14;;;;;;;12.82;8.55;;;;;;;;;;5076955;28;20224;-65
2021/12/03 19:03:55;;;;;;;11.75;8.40;;;;;;;;;;5076443;28;20257;-65
2021/12/03 19:06:25;;;;;;;11.25;8.32;;;;;;;;;;5076043;28;20208;-65
2021/12/03 19:08:55;;;;;;;10.80;8.10;;;;;;;;;;5075628;28;20246;-65
2021/12/03 19:11:24;;;;;;;11.15;8.45;;;;;;;;;;5076534;28;20200;-66
2021/12/03 19:13:52;;;;;;;12.05;8.63;;;;;;;;;;5076408;28;20268;-66
2021/12/03 19:16:22;;;;;;;11.40;8.40;;;;;;;;;;5075876;28;20539;-65
2021/12/03 19:18:50;;;;;;;14.43;8.50;;;;;;;;;;5075516;28;20220;-65
2021/12/03 19:21:19;;;;;;;13.57;10.15;;;;;;;;;;5075846;28;20278;-65
2021/12/03 19:23:46;;;;;;;16.25;9.18;;;;;;;;;;5075946;28;20516;-65
2021/12/03 19:26:13;;;;;;;16.30;9.10;;;;;;;;;;5075633;28;20204;-65
2021/12/03 19:28:41;;;;;;;13.50;8.50;;;;;;;;;;5075445;28;20208;-65
2021/12/03 19:31:08;;;;;;;18.50;7.88;;;;;;;;;;5076101;28;20528;-65
2021/12/03 19:33:35;;;;;;;11.23;8.13;;;;;;;;;;5075900;28;20216;-65
2021/12/03 19:36:02;;;;;;;11.50;7.90;;;;;;;;;;5075564;28;20288;-66
2021/12/03 19:38:30;;;;;;;13.27;8.15;;;;;;;;;;5075462;28;20423;-65
2021/12/03 19:40:58;;;;;;;15.85;10.70;;;;;;;;;;5075714;28;20232;-66
2021/12/03 19:43:31;;;;;;;15.18;9.63;;;;;;;;;;5075963;28;20460;-66
2021/12/03 19:46:00;;;;;;;13.38;9.75;;;;;;;;;;5075087;28;20231;-66
2021/12/03 19:48:34;;;;;;;12.23;8.85;;;;;;;;;;5073903;28;20209;-66
2021/12/03 19:51:01;;;;;;;11.02;8.40;;;;;;;;;;5075050;28;20228;-65
2021/12/03 19:53:29;;;;;;;10.00;7.70;;;;;;;;;;5075863;28;20481;-65
2021/12/03 19:55:55;;;;;;;9.57;7.43;;;;;;;;;;5075042;28;20215;-66
2021/12/03 19:58:21;;;;;;;10.63;7.18;;;;;;;;;;5073836;28;20216;-65
2021/12/03 20:00:50;;;;;;;9.23;6.88;;;;;;;;;;5075406;28;20574;-66
2021/12/03 20:03:17;;;;;;;10.05;6.45;;;;;;;;;;5075566;28;20230;-66
2021/12/03 20:05:43;;;;;;;8.77;6.45;;;;;;;;;;5075185;28;20204;-66
2021/12/03 20:08:10;;;;;;;8.45;5.80;;;;;;;;;;5074985;28;20208;-65
2021/12/03 20:10:39;;;;;;;7.20;5.82;;;;;;;;;;5075385;28;20395;-66
2021/12/03 20:13:08;;;;;;;7.38;5.93;;;;;;;;;;5075452;28;20252;-66
2021/12/03 20:15:38;;;;;;;6.97;6.30;;;;;;;;;;5075018;28;20208;-66
2021/12/03 20:18:12;;;;;;;8.27;5.85;;;;;;;;;;5075020;28;20646;-65
2021/12/03 20:20:40;;;;;;;8.52;6.35;;;;;;;;;;5076650;28;20277;-66
2021/12/03 20:23:11;;;;;;;7.93;6.45;;;;;;;;;;5079300;28;20208;-67
2021/12/03 20:28:24;;;;;;;7.15;5.97;;;;;;;;;;5078739;28;20204;-65
2021/12/03 20:30:54;;;;;;;6.07;5.50;;;;;;;;;;5079337;28;20207;-65
2021/12/03 20:33:53;;;;;;;7.65;5.82;;;;;;;;;;5079161;28;20223;-66
2021/12/03 20:36:33;;;;;;;5.50;5.00;;;;;;;;;;5078369;28;20207;-66
2021/12/03 20:39:02;;;;;;;5.53;4.80;;;;;;;;;;5078731;28;20212;-66
2021/12/03 20:41:34;;;;;;;5.72;4.80;;;;;;;;;;5078789;28;20224;-66
2021/12/03 20:44:14;;;;;;;5.43;4.90;;;;;;;;;;5079061;28;20208;-65
2021/12/03 20:46:52;;;;;;;6.35;4.60;;;;;;;;;;5078073;28;20230;-65
2021/12/03 20:49:28;;;;;;;5.85;4.80;;;;;;;;;;5078377;28;20520;-65
2021/12/03 20:54:42;;;;;;;7.93;5.00;;;;;;;;;;5079522;28;20559;-67
2021/12/03 20:57:17;;;;;;;7.20;5.53;;;;;;;;;;5079242;28;20208;-66
2021/12/03 21:08:12;;;;;;;11.10;6.65;;;;;;;;;;5058985;28;20263;-66